createdAt,value
2023-04-28T00:01:41.858Z,15.97
2023-04-28T00:04:09.152Z,15.99
2023-04-28T00:06:37.043Z,15.99
2023-04-28T00:09:03.910Z,16.01
2023-04-28T00:11:30.840Z,16.01
2023-04-28T00:13:57.680Z,16.01
2023-04-28T00:16:24.592Z,16.01
2023-04-28T00:18:51.876Z,15.99
2023-04-28T00:21:18.674Z,15.98
2023-04-28T00:23:45.478Z,16.00
2023-04-28T00:26:12.608Z,15.99
2023-04-28T00:28:41.481Z,16.00
2023-04-28T00:31:13.677Z,15.99
2023-04-28T00:33:41.307Z,16.02
2023-04-28T00:36:08.799Z,16.04
2023-04-28T00:38:37.375Z,16.04
2023-04-28T00:41:04.569Z,16.04
2023-04-28T00:43:31.517Z,16.05
2023-04-28T00:45:58.659Z,16.05
2023-04-28T00:48:25.537Z,16.06
2023-04-28T00:50:52.414Z,16.06
2023-04-28T00:53:19.697Z,16.09
2023-04-28T00:55:48.097Z,16.09
2023-04-28T00:58:15.032Z,16.11
2023-04-28T01:00:42.036Z,16.12
2023-04-28T01:03:09.307Z,16.13
2023-04-28T01:05:37.206Z,16.15
2023-04-28T01:08:04.639Z,16.18
2023-04-28T01:10:31.691Z,16.19
2023-04-28T01:13:04.680Z,16.18
2023-04-28T01:15:31.734Z,16.18
2023-04-28T01:17:58.664Z,16.17
2023-04-28T01:20:25.507Z,16.18
2023-04-28T01:22:52.791Z,16.18
2023-04-28T01:25:20.096Z,16.20
2023-04-28T01:27:47.749Z,16.20
2023-04-28T01:30:14.694Z,16.21
2023-04-28T01:32:41.539Z,16.23
2023-04-28T01:35:08.834Z,16.25
2023-04-28T01:37:36.488Z,16.27
2023-04-28T01:40:04.006Z,16.28
2023-04-28T01:42:31.445Z,16.29
2023-04-28T01:45:03.261Z,16.30
2023-04-28T01:47:30.130Z,16.29
2023-04-28T01:49:57.183Z,16.29
2023-04-28T01:52:24.301Z,16.30
2023-04-28T01:54:52.330Z,16.30
2023-04-28T01:57:20.604Z,16.31
2023-04-28T01:59:49.333Z,16.32
2023-04-28T02:02:16.909Z,16.32
2023-04-28T02:04:43.813Z,16.33
2023-04-28T02:07:10.708Z,16.31
2023-04-28T02:09:37.682Z,16.30
2023-04-28T02:12:04.641Z,16.31
2023-04-28T02:14:34.500Z,16.31
2023-04-28T02:17:03.180Z,16.31
2023-04-28T02:19:30.017Z,16.34
2023-04-28T02:21:56.843Z,16.35
2023-04-28T02:24:23.756Z,16.40
2023-04-28T02:26:50.612Z,16.43
2023-04-28T02:29:18.107Z,16.46
2023-04-28T02:31:46.182Z,16.49
2023-04-28T02:34:14.515Z,16.52
2023-04-28T02:36:41.548Z,16.55
2023-04-28T02:39:08.731Z,16.60
2023-04-28T02:41:36.008Z,16.64
2023-04-28T02:44:02.800Z,16.68
2023-04-28T02:46:29.630Z,16.70
2023-04-28T02:48:57.460Z,16.71
2023-04-28T02:51:24.252Z,16.73
2023-04-28T02:53:51.106Z,16.74
2023-04-28T02:56:18.120Z,16.76
2023-04-28T02:58:44.944Z,16.78
2023-04-28T03:01:11.994Z,16.80
2023-04-28T03:03:38.893Z,16.80
2023-04-28T03:06:06.330Z,16.83
2023-04-28T03:08:33.194Z,16.83
2023-04-28T03:11:00.468Z,16.83
2023-04-28T03:13:29.858Z,16.84
2023-04-28T03:15:56.735Z,16.84
2023-04-28T03:18:23.704Z,16.85
2023-04-28T03:20:50.640Z,16.85
2023-04-28T03:23:17.446Z,16.86
2023-04-28T03:25:44.289Z,16.86
2023-04-28T03:28:12.002Z,16.88
2023-04-28T03:30:39.734Z,16.89
2023-04-28T03:33:07.334Z,16.92
2023-04-28T03:35:34.177Z,16.94
2023-04-28T03:38:01.079Z,16.96
2023-04-28T03:40:27.997Z,16.97
2023-04-28T03:43:14.801Z,17.00
2023-04-28T03:45:58.642Z,17.01
2023-04-28T03:48:25.735Z,17.00
2023-04-28T03:50:52.582Z,17.01
2023-04-28T03:53:19.603Z,17.01
2023-04-28T03:55:46.671Z,17.01
2023-04-28T03:58:13.503Z,17.01
2023-04-28T04:00:40.291Z,17.03
2023-04-28T04:03:07.239Z,17.03
2023-04-28T04:05:34.085Z,17.06
2023-04-28T04:08:02.139Z,17.07
2023-04-28T04:10:29.590Z,17.09
2023-04-28T04:12:56.489Z,17.10
2023-04-28T04:15:23.361Z,17.13
2023-04-28T04:17:50.714Z,17.14
2023-04-28T04:20:17.718Z,17.15
2023-04-28T04:22:46.039Z,17.17
2023-04-28T04:25:13.904Z,17.18
2023-04-28T04:27:43.073Z,17.20
2023-04-28T04:30:10.173Z,17.22
2023-04-28T04:32:37.570Z,17.22
2023-04-28T04:35:04.910Z,17.23
2023-04-28T04:37:31.795Z,17.26
2023-04-28T04:40:01.773Z,17.17
2023-04-28T04:42:33.225Z,17.27
2023-04-28T04:45:06.200Z,17.27
2023-04-28T04:47:33.150Z,17.27
2023-04-28T04:50:00.273Z,17.30
2023-04-28T04:52:27.156Z,17.30
2023-04-28T04:54:56.307Z,17.31
2023-04-28T04:57:24.316Z,17.31
2023-04-28T05:00:18.505Z,17.30
2023-04-28T05:02:46.484Z,17.28
2023-04-28T05:05:21.315Z,17.26
2023-04-28T05:07:56.195Z,17.26
2023-04-28T05:10:24.111Z,17.25
2023-04-28T05:12:51.791Z,17.24
2023-04-28T05:15:18.884Z,17.24
2023-04-28T05:18:09.756Z,17.26
2023-04-28T05:20:37.670Z,17.25
2023-04-28T05:23:05.892Z,17.26
2023-04-28T05:25:33.041Z,17.25
2023-04-28T05:28:04.698Z,17.26
2023-04-28T05:30:31.774Z,17.27
2023-04-28T05:32:58.811Z,17.27
2023-04-28T05:35:26.347Z,17.29
2023-04-28T05:37:53.647Z,17.29
2023-04-28T05:40:22.108Z,17.30
2023-04-28T05:42:49.490Z,17.31
2023-04-28T05:45:16.402Z,17.31
2023-04-28T05:47:43.567Z,17.33
2023-04-28T05:50:13.601Z,17.32
2023-04-28T05:52:40.566Z,17.32
2023-04-28T05:55:08.131Z,17.28
2023-04-28T05:57:45.685Z,17.25
2023-04-28T06:00:19.458Z,17.26
2023-04-28T06:02:46.480Z,17.23
2023-04-28T06:05:13.640Z,17.22
2023-04-28T06:07:40.944Z,17.22
2023-04-28T06:10:09.419Z,17.20
2023-04-28T06:12:37.348Z,17.19
2023-04-28T06:15:06.366Z,17.19
2023-04-28T06:17:34.349Z,17.19
2023-04-28T06:20:01.406Z,17.24
2023-04-28T06:22:28.327Z,17.29
2023-04-28T06:24:55.145Z,17.33
2023-04-28T06:27:32.688Z,17.36
2023-04-28T06:29:59.705Z,17.39
2023-04-28T06:32:26.582Z,17.43
2023-04-28T06:34:53.489Z,17.45
2023-04-28T06:37:20.321Z,17.47
2023-04-28T06:39:48.166Z,17.48
2023-04-28T06:42:18.387Z,17.50
2023-04-28T06:44:52.466Z,17.52
2023-04-28T06:47:20.085Z,17.55
2023-04-28T06:49:49.909Z,17.59
2023-04-28T06:52:16.860Z,17.60
2023-04-28T06:54:43.700Z,17.62
2023-04-28T06:57:10.595Z,17.62
2023-04-28T06:59:38.216Z,17.66
2023-04-28T07:02:05.083Z,17.68
2023-04-28T07:04:32.092Z,17.73
2023-04-28T07:06:58.911Z,17.76
2023-04-28T07:09:25.814Z,17.78
2023-04-28T07:11:52.607Z,17.82
2023-04-28T07:14:19.489Z,17.85
2023-04-28T07:16:46.587Z,17.87
2023-04-28T07:19:13.613Z,17.88
2023-04-28T07:21:40.361Z,17.88
2023-04-28T07:24:07.472Z,17.88
2023-04-28T07:26:34.393Z,17.86
2023-04-28T07:29:01.983Z,17.85
2023-04-28T07:31:29.184Z,17.82
2023-04-28T07:33:56.747Z,17.81
2023-04-28T07:36:23.845Z,17.79
2023-04-28T07:38:50.978Z,17.79
2023-04-28T07:41:18.691Z,17.77
2023-04-28T07:43:45.570Z,17.73
2023-04-28T07:46:13.225Z,17.72
2023-04-28T07:48:40.436Z,17.69
2023-04-28T07:51:07.338Z,17.68
2023-04-28T07:53:34.654Z,17.62
2023-04-28T07:56:01.960Z,17.59
2023-04-28T07:58:28.789Z,17.57
2023-04-28T08:00:55.655Z,17.55
2023-04-28T08:03:22.650Z,17.55
2023-04-28T08:05:49.860Z,17.56
2023-04-28T08:08:16.824Z,17.53
2023-04-28T08:10:43.780Z,17.52
2023-04-28T08:13:10.706Z,17.52
2023-04-28T08:15:37.573Z,17.54
2023-04-28T08:18:04.562Z,17.57
2023-04-28T08:20:32.450Z,17.62
2023-04-28T08:22:59.320Z,17.68
2023-04-28T08:25:26.253Z,17.73
2023-04-28T08:27:53.729Z,17.77
2023-04-28T08:30:21.828Z,17.81
2023-04-28T08:32:48.704Z,17.85
2023-04-28T08:35:15.696Z,17.89
2023-04-28T08:37:42.898Z,17.94
2023-04-28T08:40:10.366Z,17.96
2023-04-28T08:42:38.233Z,18.00
2023-04-28T08:45:05.986Z,18.03
2023-04-28T08:47:39.428Z,18.03
2023-04-28T08:50:08.810Z,18.09
2023-04-28T08:52:36.560Z,18.13
2023-04-28T08:55:09.514Z,18.18
2023-04-28T08:57:44.202Z,18.23
2023-04-28T09:00:12.104Z,18.29
2023-04-28T09:02:42.068Z,18.31
2023-04-28T09:05:14.246Z,18.32
2023-04-28T09:07:41.416Z,18.37
2023-04-28T09:10:23.105Z,18.38
2023-04-28T09:12:56.665Z,18.46
2023-04-28T09:15:35.255Z,18.47
2023-04-28T09:18:04.077Z,18.58
2023-04-28T09:20:33.366Z,18.68
2023-04-28T09:23:21.252Z,18.73
2023-04-28T09:26:02.099Z,18.84
2023-04-28T09:28:29.113Z,19.01
2023-04-28T09:30:56.035Z,19.12
2023-04-28T09:33:23.283Z,19.25
2023-04-28T09:35:50.414Z,19.37
2023-04-28T09:38:20.093Z,19.48
2023-04-28T09:41:01.952Z,19.53
2023-04-28T09:43:34.624Z,19.64
2023-04-28T09:46:04.790Z,19.74
2023-04-28T09:48:37.997Z,19.80
2023-04-28T09:51:07.646Z,19.86
2023-04-28T09:53:35.636Z,19.93
2023-04-28T09:56:05.255Z,19.98
2023-04-28T09:58:35.067Z,20.05
2023-04-28T10:01:02.182Z,20.09
2023-04-28T10:03:31.086Z,20.13
2023-04-28T10:05:59.226Z,20.18
2023-04-28T10:08:27.793Z,20.24
2023-04-28T10:10:56.639Z,20.27
2023-04-28T10:13:24.749Z,20.29
2023-04-28T10:15:55.227Z,20.32
2023-04-28T10:18:24.106Z,20.31
2023-04-28T10:20:58.176Z,20.29
2023-04-28T10:24:08.164Z,20.26
2023-04-28T10:27:09.152Z,20.23
2023-04-28T10:29:36.621Z,20.31
2023-04-28T10:32:19.122Z,20.28
2023-04-28T10:34:45.974Z,20.34
2023-04-28T10:37:15.024Z,20.35
2023-04-28T10:40:21.124Z,20.29
2023-04-28T10:42:56.512Z,20.31
2023-04-28T10:45:56.404Z,20.29
2023-04-28T10:48:46.841Z,20.30
2023-04-28T10:51:16.434Z,20.38
2023-04-28T10:53:46.809Z,20.44
2023-04-28T10:56:21.606Z,20.48
2023-04-28T10:58:50.830Z,20.55
2023-04-28T11:01:26.184Z,20.59
2023-04-28T11:03:59.911Z,20.67
2023-04-28T11:06:46.958Z,20.66
2023-04-28T11:09:19.343Z,20.78
2023-04-28T11:12:00.788Z,20.81
2023-04-28T11:14:36.484Z,20.88
2023-04-28T11:17:13.146Z,20.93
2023-04-28T11:19:45.000Z,20.96
2023-04-28T11:22:21.711Z,20.95
2023-04-28T11:25:03.173Z,20.96
2023-04-28T11:27:34.518Z,20.99
2023-04-28T11:30:01.935Z,21.03
2023-04-28T11:32:34.392Z,20.99
2023-04-28T11:35:01.821Z,21.01
2023-04-28T11:37:28.641Z,21.02
2023-04-28T11:39:55.630Z,21.03
2023-04-28T11:42:22.445Z,21.06
2023-04-28T11:44:53.858Z,21.04
2023-04-28T11:47:33.763Z,21.04
2023-04-28T11:50:01.840Z,21.01
2023-04-28T11:52:28.952Z,21.16
2023-04-28T11:54:58.011Z,21.22
2023-04-28T11:57:25.384Z,21.32
2023-04-28T11:59:52.377Z,21.42
2023-04-28T12:02:30.254Z,21.45
2023-04-28T12:05:05.861Z,21.54
2023-04-28T12:07:44.226Z,21.62
2023-04-28T12:10:16.733Z,21.73
2023-04-28T12:12:51.003Z,21.85
2023-04-28T12:15:21.883Z,21.91
2023-04-28T12:17:50.588Z,21.96
2023-04-28T12:20:38.015Z,21.94
2023-04-28T12:23:06.118Z,22.04
2023-04-28T12:25:34.893Z,22.08
2023-04-28T12:28:11.145Z,22.05
2023-04-28T12:30:44.596Z,22.09
2023-04-28T12:33:25.550Z,22.04
2023-04-28T12:35:55.101Z,22.07
2023-04-28T12:38:22.870Z,22.08
2023-04-28T12:40:49.708Z,22.12
2023-04-28T12:43:16.543Z,22.14
2023-04-28T12:45:43.589Z,22.15
2023-04-28T12:48:10.809Z,22.17
2023-04-28T12:50:38.076Z,22.20
2023-04-28T12:53:05.157Z,22.23
2023-04-28T12:55:32.117Z,22.28
2023-04-28T12:57:59.450Z,22.37
2023-04-28T13:00:26.403Z,22.47
2023-04-28T13:02:53.425Z,22.60
2023-04-28T13:05:20.374Z,22.72
2023-04-28T13:07:47.626Z,22.79
2023-04-28T13:10:15.511Z,22.86
2023-04-28T13:12:42.510Z,22.86
2023-04-28T13:15:10.229Z,22.87
2023-04-28T13:17:37.020Z,22.87
2023-04-28T13:20:05.178Z,22.89
2023-04-28T13:22:32.271Z,22.89
2023-04-28T13:24:59.132Z,22.89
2023-04-28T13:27:25.962Z,22.88
2023-04-28T13:29:52.754Z,22.87
2023-04-28T13:32:19.906Z,22.83
2023-04-28T13:34:47.053Z,22.79
2023-04-28T13:37:14.183Z,22.75
2023-04-28T13:39:41.061Z,22.71
2023-04-28T13:42:08.238Z,22.65
2023-04-28T13:44:35.282Z,22.61
2023-04-28T13:47:02.408Z,22.56
2023-04-28T13:49:29.222Z,22.52
2023-04-28T13:51:56.355Z,22.48
2023-04-28T13:54:23.144Z,22.45
2023-04-28T13:56:50.316Z,22.43
2023-04-28T13:59:17.286Z,22.42
2023-04-28T14:01:44.266Z,22.38
2023-04-28T14:04:11.504Z,22.30
2023-04-28T14:06:38.639Z,22.19
2023-04-28T14:09:06.314Z,22.09
2023-04-28T14:11:33.134Z,21.99
2023-04-28T14:13:59.900Z,21.89
2023-04-28T14:16:27.446Z,21.81
2023-04-28T14:18:54.369Z,21.72
2023-04-28T14:21:21.216Z,21.68
2023-04-28T14:23:48.036Z,21.68
2023-04-28T14:26:14.827Z,21.68
2023-04-28T14:28:42.198Z,21.69
2023-04-28T14:31:09.393Z,21.68
2023-04-28T14:33:36.724Z,21.68
2023-04-28T14:36:03.995Z,21.68
2023-04-28T14:38:31.116Z,21.70
2023-04-28T14:40:58.114Z,21.74
2023-04-28T14:43:25.585Z,21.76
2023-04-28T14:45:53.031Z,21.79
2023-04-28T14:48:20.294Z,21.81
2023-04-28T14:50:47.468Z,21.86
2023-04-28T14:53:14.306Z,21.93
2023-04-28T14:55:41.125Z,22.03
2023-04-28T14:58:07.905Z,22.12
2023-04-28T15:00:35.430Z,22.18
2023-04-28T15:03:02.352Z,22.24
2023-04-28T15:05:29.358Z,22.28
2023-04-28T15:07:56.244Z,22.29
2023-04-28T15:10:23.084Z,22.29
2023-04-28T15:12:49.959Z,22.28
2023-04-28T15:15:16.856Z,22.28
2023-04-28T15:17:45.104Z,22.28
2023-04-28T15:20:12.131Z,22.27
2023-04-28T15:22:38.968Z,22.24
2023-04-28T15:25:06.806Z,22.21
2023-04-28T15:27:33.591Z,22.15
2023-04-28T15:30:01.182Z,22.12
2023-04-28T15:32:30.346Z,22.09
2023-04-28T15:34:57.537Z,22.06
2023-04-28T15:37:45.201Z,21.95
2023-04-28T15:40:14.963Z,21.95
2023-04-28T15:42:43.411Z,21.92
2023-04-28T15:45:11.069Z,21.89
2023-04-28T15:47:38.981Z,21.84
2023-04-28T15:50:08.852Z,21.80
2023-04-28T15:52:45.939Z,21.72
2023-04-28T15:55:14.567Z,21.69
2023-04-28T15:57:42.593Z,21.66
2023-04-28T16:00:11.323Z,21.60
2023-04-28T16:02:39.232Z,21.55
2023-04-28T16:05:07.215Z,21.50
2023-04-28T16:07:41.118Z,21.48
2023-04-28T16:10:14.825Z,21.44
2023-04-28T16:12:42.567Z,21.47
2023-04-28T16:15:12.424Z,21.44
2023-04-28T16:17:40.262Z,21.45
2023-04-28T16:20:09.789Z,21.43
2023-04-28T16:22:38.687Z,21.43
2023-04-28T16:25:06.592Z,21.41
2023-04-28T16:27:33.837Z,21.40
2023-04-28T16:30:00.852Z,21.39
2023-04-28T16:32:28.077Z,21.35
2023-04-28T16:34:58.195Z,21.33
2023-04-28T16:37:25.761Z,21.35
2023-04-28T16:39:52.778Z,21.34
2023-04-28T16:42:22.699Z,21.30
2023-04-28T16:44:51.811Z,21.24
2023-04-28T16:47:19.971Z,21.21
2023-04-28T16:49:46.792Z,21.16
2023-04-28T16:52:13.626Z,21.14
2023-04-28T16:54:40.456Z,21.15
2023-04-28T16:57:07.644Z,21.17
2023-04-28T16:59:34.456Z,21.18
2023-04-28T17:02:03.780Z,21.23
2023-04-28T17:04:31.356Z,21.40
2023-04-28T17:06:58.789Z,21.67
2023-04-28T17:09:28.246Z,22.07
2023-04-28T17:11:55.573Z,22.43
2023-04-28T17:14:22.513Z,22.80
2023-04-28T17:16:49.406Z,23.07
2023-04-28T17:19:16.686Z,23.26
2023-04-28T17:21:43.638Z,23.44
2023-04-28T17:24:10.480Z,23.66
2023-04-28T17:26:37.308Z,23.88
2023-04-28T17:29:04.784Z,24.04
2023-04-28T17:31:31.634Z,23.99
2023-04-28T17:33:59.736Z,23.86
2023-04-28T17:36:27.148Z,23.69
2023-04-28T17:38:54.790Z,23.50
2023-04-28T17:41:22.470Z,23.31
2023-04-28T17:43:51.776Z,23.13
2023-04-28T17:46:18.963Z,22.95
2023-04-28T17:48:45.877Z,22.79
2023-04-28T17:51:12.696Z,22.64
2023-04-28T17:53:39.566Z,22.48
2023-04-28T17:56:06.660Z,22.31
2023-04-28T17:58:33.682Z,22.17
2023-04-28T18:01:05.219Z,21.99
2023-04-28T18:03:37.920Z,21.86
2023-04-28T18:06:07.574Z,21.75
2023-04-28T18:08:36.356Z,21.64
2023-04-28T18:11:03.590Z,21.53
2023-04-28T18:13:30.461Z,21.43
2023-04-28T18:15:57.327Z,21.32
2023-04-28T18:18:24.179Z,21.24
2023-04-28T18:20:58.026Z,21.09
2023-04-28T18:23:26.434Z,21.03
2023-04-28T18:25:53.300Z,20.95
2023-04-28T18:28:20.119Z,20.85
2023-04-28T18:30:46.972Z,20.76
2023-04-28T18:33:13.967Z,20.69
2023-04-28T18:35:40.979Z,20.62
2023-04-28T18:38:07.828Z,20.55
2023-04-28T18:40:40.706Z,20.48
2023-04-28T18:43:10.329Z,20.43
2023-04-28T18:45:40.745Z,20.38
2023-04-28T18:48:08.502Z,20.34
2023-04-28T18:50:36.218Z,20.30
2023-04-28T18:53:04.925Z,20.24
2023-04-28T18:55:34.818Z,20.17
2023-04-28T18:58:02.091Z,20.14
2023-04-28T19:00:29.208Z,20.10
2023-04-28T19:02:56.255Z,20.07
2023-04-28T19:05:23.265Z,20.01
2023-04-28T19:07:50.293Z,19.98
2023-04-28T19:10:17.171Z,19.94
2023-04-28T19:12:44.041Z,19.90
2023-04-28T19:15:10.886Z,19.83
2023-04-28T19:17:37.735Z,19.80
2023-04-28T19:20:05.251Z,19.75
2023-04-28T19:22:37.848Z,19.68
2023-04-28T19:25:09.669Z,19.67
2023-04-28T19:27:39.452Z,19.64
2023-04-28T19:30:12.292Z,19.60
2023-04-28T19:32:41.589Z,19.58
2023-04-28T19:35:09.405Z,19.55
2023-04-28T19:37:36.358Z,19.52
2023-04-28T19:40:07.302Z,19.49
2023-04-28T19:42:35.112Z,19.46
2023-04-28T19:45:02.509Z,19.44
2023-04-28T19:47:34.170Z,19.42
2023-04-28T19:50:01.629Z,19.41
2023-04-28T19:52:28.543Z,19.40
2023-04-28T19:54:55.509Z,19.37
2023-04-28T19:57:22.416Z,19.36
2023-04-28T19:59:49.863Z,19.35
2023-04-28T20:02:17.301Z,19.35
2023-04-28T20:04:44.369Z,19.35
2023-04-28T20:07:11.907Z,19.36
2023-04-28T20:09:39.120Z,19.36
2023-04-28T20:12:08.583Z,19.36
2023-04-28T20:14:37.027Z,19.38
2023-04-28T20:17:04.843Z,19.40
2023-04-28T20:19:31.817Z,19.41
2023-04-28T20:21:58.665Z,19.38
2023-04-28T20:24:25.841Z,19.38
2023-04-28T20:26:54.381Z,19.38
2023-04-28T20:29:21.493Z,19.38
2023-04-28T20:31:48.564Z,19.38
2023-04-28T20:34:15.557Z,19.38
2023-04-28T20:36:43.176Z,19.37
2023-04-28T20:39:11.546Z,19.38
2023-04-28T20:41:40.850Z,19.38
2023-04-28T20:44:08.052Z,19.38
2023-04-28T20:46:35.385Z,19.38
2023-04-28T20:49:04.489Z,19.37
2023-04-28T20:51:35.136Z,19.36
2023-04-28T20:54:03.859Z,19.34
2023-04-28T20:56:30.632Z,19.34
2023-04-28T20:58:57.406Z,19.34
2023-04-28T21:01:24.406Z,19.33
2023-04-28T21:03:51.483Z,19.33
2023-04-28T21:06:18.354Z,19.31
2023-04-28T21:08:45.198Z,19.31
2023-04-28T21:11:16.961Z,19.29
2023-04-28T21:13:44.962Z,19.31
2023-04-28T21:16:21.448Z,19.29
2023-04-28T21:18:49.824Z,19.32
2023-04-28T21:21:16.835Z,19.31
2023-04-28T21:23:44.155Z,19.32
2023-04-28T21:26:11.110Z,19.31
2023-04-28T21:28:39.762Z,19.30
2023-04-28T21:31:06.689Z,19.31
2023-04-28T21:33:34.058Z,19.31
2023-04-28T21:36:07.774Z,19.29
2023-04-28T21:38:35.329Z,19.31
2023-04-28T21:41:02.479Z,19.31
2023-04-28T21:43:29.360Z,19.31
2023-04-28T21:45:56.194Z,19.31
2023-04-28T21:48:23.041Z,19.31
2023-04-28T21:50:49.948Z,19.30
2023-04-28T21:53:16.934Z,19.30
2023-04-28T21:55:44.747Z,19.27
2023-04-28T21:58:12.219Z,19.26
2023-04-28T22:00:43.441Z,19.22
2023-04-28T22:03:11.186Z,19.24
2023-04-28T22:05:40.177Z,19.21
2023-04-28T22:08:07.240Z,19.19
2023-04-28T22:10:34.824Z,19.18
2023-04-28T22:13:01.713Z,19.16
2023-04-28T22:15:28.839Z,19.14
2023-04-28T22:17:55.832Z,19.12
2023-04-28T22:20:22.695Z,19.10
2023-04-28T22:22:49.866Z,19.09
2023-04-28T22:25:17.119Z,19.06
2023-04-28T22:27:44.029Z,19.04
2023-04-28T22:30:11.679Z,19.04
2023-04-28T22:32:38.643Z,19.02
2023-04-28T22:35:06.117Z,18.99
2023-04-28T22:37:33.965Z,18.97
2023-04-28T22:40:01.005Z,18.95
2023-04-28T22:42:28.525Z,18.94
2023-04-28T22:44:55.455Z,18.94
2023-04-28T22:47:24.509Z,18.93
2023-04-28T22:49:51.659Z,18.92
2023-04-28T22:52:20.378Z,18.91
2023-04-28T22:54:47.450Z,18.87
2023-04-28T22:57:14.218Z,18.85
2023-04-28T22:59:41.855Z,18.83
2023-04-28T23:02:09.839Z,18.80
2023-04-28T23:04:36.921Z,18.76
2023-04-28T23:07:03.792Z,18.75
2023-04-28T23:09:31.436Z,18.71
2023-04-28T23:11:58.235Z,18.69
2023-04-28T23:14:25.058Z,18.68
2023-04-28T23:16:55.231Z,18.66
2023-04-28T23:19:22.507Z,18.64
2023-04-28T23:21:49.655Z,18.63
2023-04-28T23:24:16.538Z,18.62
2023-04-28T23:26:43.325Z,18.61
2023-04-28T23:29:10.424Z,18.61
2023-04-28T23:31:40.193Z,18.62
2023-04-28T23:34:07.074Z,18.60
2023-04-28T23:36:33.983Z,18.60
2023-04-28T23:39:02.105Z,18.60
2023-04-28T23:41:29.143Z,18.57
2023-04-28T23:43:56.602Z,18.55
2023-04-28T23:46:23.858Z,18.53
2023-04-28T23:48:50.797Z,18.52
2023-04-28T23:51:17.602Z,18.50
2023-04-28T23:53:44.578Z,18.47
2023-04-28T23:56:11.635Z,18.46
2023-04-28T23:58:38.810Z,18.44
